createdAt,value
2018-07-24T00:00:08.133Z,23.80
2018-07-24T00:02:45.028Z,23.80
2018-07-24T00:05:18.225Z,23.80
2018-07-24T00:07:50.499Z,23.70
2018-07-24T00:10:22.588Z,23.70
2018-07-24T00:12:55.879Z,23.70
2018-07-24T00:15:33.512Z,23.70
2018-07-24T00:18:06.169Z,23.60
2018-07-24T00:20:39.417Z,23.60
2018-07-24T00:25:45.818Z,23.60
2018-07-24T00:28:20.540Z,23.60
2018-07-24T00:33:34.093Z,23.50
2018-07-24T00:36:07.489Z,23.50
2018-07-24T00:38:41.490Z,23.50
2018-07-24T00:41:18.647Z,23.50
2018-07-24T00:43:51.865Z,23.40
2018-07-24T00:46:25.110Z,23.40
2018-07-24T00:48:57.282Z,23.40
2018-07-24T00:51:29.584Z,23.40
2018-07-24T00:54:02.151Z,23.40
2018-07-24T00:56:34.397Z,23.30
2018-07-24T00:59:07.595Z,23.30
2018-07-24T01:01:39.923Z,23.20
2018-07-24T01:04:12.577Z,23.20
2018-07-24T01:06:44.861Z,23.20
2018-07-24T01:09:17.313Z,23.20
2018-07-24T01:11:50.752Z,23.20
2018-07-24T01:14:22.719Z,23.20
2018-07-24T01:16:55.593Z,23.10
2018-07-24T01:19:28.052Z,23.10
2018-07-24T01:22:00.207Z,23.10
2018-07-24T01:27:03.361Z,23.10
2018-07-24T01:29:37.025Z,23.00
2018-07-24T01:32:09.590Z,23.00
2018-07-24T01:34:41.700Z,23.00
2018-07-24T01:37:13.766Z,23.00
2018-07-24T01:39:46.590Z,23.00
2018-07-24T01:42:18.446Z,22.90
2018-07-24T01:44:50.821Z,22.90
2018-07-24T01:47:23.315Z,22.90
2018-07-24T01:52:26.357Z,22.80
2018-07-24T01:54:58.443Z,22.80
2018-07-24T01:57:30.714Z,22.80
2018-07-24T02:00:02.887Z,22.70
2018-07-24T02:02:35.588Z,22.70
2018-07-24T02:05:08.099Z,22.70
2018-07-24T02:07:40.751Z,22.70
2018-07-24T02:10:12.889Z,22.60
2018-07-24T02:12:45.030Z,22.60
2018-07-24T02:15:17.218Z,22.60
2018-07-24T02:17:49.402Z,22.60
2018-07-24T02:20:21.515Z,22.60
2018-07-24T02:22:53.671Z,22.60
2018-07-24T02:25:25.726Z,22.50
2018-07-24T02:27:58.589Z,22.60
2018-07-24T02:30:30.662Z,22.60
2018-07-24T02:33:02.835Z,22.50
2018-07-24T02:35:35.510Z,22.50
2018-07-24T02:38:08.043Z,22.50
2018-07-24T02:40:40.089Z,22.50
2018-07-24T02:43:17.662Z,22.40
2018-07-24T02:45:49.662Z,22.40
2018-07-24T02:48:21.887Z,22.40
2018-07-24T02:50:55.023Z,22.30
2018-07-24T02:53:26.898Z,22.30
2018-07-24T02:55:59.157Z,22.30
2018-07-24T02:58:31.090Z,22.30
2018-07-24T03:01:03.309Z,22.30
2018-07-24T03:03:35.383Z,22.30
2018-07-24T03:06:07.628Z,22.20
2018-07-24T03:08:39.641Z,22.20
2018-07-24T03:13:42.713Z,22.20
2018-07-24T03:16:15.161Z,22.20
2018-07-24T03:18:47.290Z,22.10
2018-07-24T03:21:19.522Z,22.10
2018-07-24T03:23:51.717Z,22.10
2018-07-24T03:26:23.742Z,22.10
2018-07-24T03:28:55.809Z,22.10
2018-07-24T03:31:28.119Z,22.10
2018-07-24T03:34:00.258Z,22.10
2018-07-24T03:36:32.117Z,22.00
2018-07-24T03:39:04.667Z,22.00
2018-07-24T03:41:36.903Z,22.00
2018-07-24T03:44:09.068Z,22.00
2018-07-24T03:46:41.081Z,22.00
2018-07-24T03:49:13.131Z,22.00
2018-07-24T03:51:45.164Z,21.90
2018-07-24T03:54:17.200Z,21.90
2018-07-24T03:56:49.477Z,21.90
2018-07-24T03:59:21.750Z,21.90
2018-07-24T04:01:54.182Z,21.90
2018-07-24T04:04:26.276Z,21.80
2018-07-24T04:06:58.221Z,21.90
2018-07-24T04:17:03.792Z,21.80
2018-07-24T04:19:35.942Z,21.80
2018-07-24T04:22:08.306Z,21.80
2018-07-24T04:24:40.365Z,21.70
2018-07-24T04:27:12.526Z,21.70
2018-07-24T04:29:44.602Z,21.70
2018-07-24T04:32:16.742Z,21.70
2018-07-24T04:34:48.993Z,21.70
2018-07-24T04:37:21.011Z,21.70
2018-07-24T04:39:53.112Z,21.70
2018-07-24T04:42:25.458Z,21.70
2018-07-24T04:44:57.552Z,21.60
2018-07-24T04:47:32.998Z,21.60
2018-07-24T04:50:05.087Z,21.60
2018-07-24T04:52:37.805Z,21.60
2018-07-24T04:55:09.966Z,21.60
2018-07-24T04:57:42.047Z,21.50
2018-07-24T05:00:14.362Z,21.50
2018-07-24T05:02:46.415Z,21.50
2018-07-24T05:05:18.623Z,21.50
2018-07-24T05:07:50.701Z,21.50
2018-07-24T05:10:22.996Z,21.50
2018-07-24T05:12:54.963Z,21.50
2018-07-24T05:15:27.377Z,21.50
2018-07-24T05:17:59.326Z,21.50
2018-07-24T05:20:31.571Z,21.40
2018-07-24T05:23:03.593Z,21.40
2018-07-24T05:25:36.350Z,21.50
2018-07-24T05:28:08.520Z,21.40
2018-07-24T05:30:40.675Z,21.40
2018-07-24T05:33:13.410Z,21.40
2018-07-24T05:35:45.494Z,21.40
2018-07-24T05:38:17.426Z,21.40
2018-07-24T05:40:49.437Z,21.40
2018-07-24T05:45:52.478Z,21.40
2018-07-24T05:48:24.621Z,21.40
2018-07-24T05:50:56.622Z,21.40
2018-07-24T05:53:28.515Z,21.40
2018-07-24T05:56:00.699Z,21.40
2018-07-24T05:58:32.980Z,21.40
2018-07-24T06:01:04.981Z,21.40
2018-07-24T06:03:37.104Z,21.40
2018-07-24T06:06:09.146Z,21.40
2018-07-24T06:08:41.518Z,21.40
2018-07-24T06:11:13.789Z,21.40
2018-07-24T06:13:45.940Z,21.40
2018-07-24T06:16:18.009Z,21.40
2018-07-24T06:18:49.981Z,21.40
2018-07-24T06:21:22.130Z,21.40
2018-07-24T06:23:54.774Z,21.40
2018-07-24T06:26:26.908Z,21.40
2018-07-24T06:28:58.946Z,21.40
2018-07-24T06:31:30.898Z,21.50
2018-07-24T06:34:02.958Z,21.50
2018-07-24T06:36:35.317Z,21.50
2018-07-24T06:39:11.750Z,21.40
2018-07-24T06:41:43.973Z,21.40
2018-07-24T06:44:15.796Z,21.50
2018-07-24T06:46:47.877Z,21.50
2018-07-24T06:49:20.080Z,21.50
2018-07-24T06:51:52.281Z,21.50
2018-07-24T06:54:24.411Z,21.50
2018-07-24T06:56:56.645Z,21.50
2018-07-24T06:59:29.423Z,21.50
2018-07-24T07:02:01.473Z,21.60
2018-07-24T07:04:33.363Z,21.60
2018-07-24T07:07:05.451Z,21.60
2018-07-24T07:09:37.667Z,21.60
2018-07-24T07:12:09.772Z,21.60
2018-07-24T07:14:41.618Z,21.60
2018-07-24T07:17:13.861Z,21.70
2018-07-24T07:19:46.646Z,21.70
2018-07-24T07:22:18.947Z,21.70
2018-07-24T07:24:51.065Z,21.80
2018-07-24T07:27:23.190Z,21.80
2018-07-24T07:29:55.066Z,21.80
2018-07-24T07:32:28.133Z,21.90
2018-07-24T07:35:04.013Z,21.90
2018-07-24T07:37:42.135Z,22.00
2018-07-24T07:40:21.984Z,22.00
2018-07-24T07:43:04.164Z,22.00
2018-07-24T07:45:37.157Z,22.00
2018-07-24T07:48:10.901Z,22.10
2018-07-24T07:50:42.974Z,22.10
2018-07-24T07:53:20.330Z,22.10
2018-07-24T07:56:01.155Z,22.10
2018-07-24T07:58:45.441Z,22.20
2018-07-24T08:01:30.069Z,22.20
2018-07-24T08:04:04.441Z,22.30
2018-07-24T08:07:27.638Z,22.30
2018-07-24T08:10:17.779Z,22.40
2018-07-24T08:12:58.099Z,22.50
2018-07-24T08:15:30.308Z,22.50
2018-07-24T08:18:02.503Z,22.60
2018-07-24T08:20:34.757Z,22.60
2018-07-24T08:23:07.017Z,22.60
2018-07-24T08:25:39.073Z,22.60
2018-07-24T08:28:12.299Z,22.60
2018-07-24T08:30:50.047Z,22.70
2018-07-24T08:33:23.867Z,22.80
2018-07-24T08:35:56.057Z,22.80
2018-07-24T08:38:28.859Z,22.90
2018-07-24T08:41:01.021Z,22.90
2018-07-24T08:43:33.167Z,22.90
2018-07-24T08:46:05.277Z,23.00
2018-07-24T08:48:37.573Z,23.00
2018-07-24T08:51:09.679Z,23.00
2018-07-24T08:53:42.585Z,23.00
2018-07-24T08:56:15.841Z,23.10
2018-07-24T08:58:52.965Z,23.10
2018-07-24T09:01:31.268Z,23.10
2018-07-24T09:04:06.347Z,23.20
2018-07-24T09:06:38.907Z,23.20
2018-07-24T09:09:13.308Z,23.30
2018-07-24T09:11:45.304Z,23.30
2018-07-24T09:14:17.178Z,23.30
2018-07-24T09:16:49.367Z,23.30
2018-07-24T09:19:21.495Z,23.40
2018-07-24T09:21:54.027Z,23.40
2018-07-24T09:24:26.052Z,23.50
2018-07-24T09:26:58.793Z,23.50
2018-07-24T09:29:30.879Z,23.50
2018-07-24T09:32:02.919Z,23.50
2018-07-24T09:34:35.265Z,23.60
2018-07-24T09:37:07.444Z,23.60
2018-07-24T09:39:40.061Z,23.70
2018-07-24T09:42:12.376Z,23.70
2018-07-24T09:44:44.642Z,23.70
2018-07-24T09:47:17.224Z,23.80
2018-07-24T09:49:49.292Z,23.90
2018-07-24T09:52:22.625Z,23.90
2018-07-24T09:54:54.599Z,23.90
2018-07-24T09:57:26.551Z,24.00
2018-07-24T09:59:59.700Z,24.40
2018-07-24T10:02:31.741Z,24.80
2018-07-24T10:05:05.412Z,25.00
2018-07-24T10:07:38.187Z,25.10
2018-07-24T10:10:10.461Z,25.30
2018-07-24T10:12:42.589Z,25.70
2018-07-24T10:15:14.739Z,25.60
2018-07-24T10:17:47.030Z,25.70
2018-07-24T10:22:50.151Z,25.80
2018-07-24T10:25:22.366Z,25.80
2018-07-24T10:27:54.588Z,25.80
2018-07-24T10:30:26.698Z,25.90
2018-07-24T10:32:58.781Z,26.30
2018-07-24T10:35:31.636Z,26.10
2018-07-24T10:38:03.815Z,26.20
2018-07-24T10:40:35.945Z,25.90
2018-07-24T10:43:08.238Z,25.70
2018-07-24T10:45:40.411Z,25.60
2018-07-24T10:48:12.950Z,25.60
2018-07-24T10:50:45.204Z,25.60
2018-07-24T10:53:17.275Z,25.50
2018-07-24T10:55:49.411Z,25.60
2018-07-24T10:58:21.476Z,25.60
2018-07-24T11:00:53.449Z,25.70
2018-07-24T11:03:25.390Z,25.60
2018-07-24T11:05:57.397Z,25.60
2018-07-24T11:08:29.545Z,25.60
2018-07-24T11:13:33.052Z,25.70
2018-07-24T11:16:04.861Z,25.70
2018-07-24T11:18:37.145Z,25.70
2018-07-24T11:21:09.178Z,25.80
2018-07-24T11:23:41.689Z,25.80
2018-07-24T11:26:13.848Z,25.80
2018-07-24T11:28:46.174Z,25.80
2018-07-24T11:31:18.301Z,25.90
2018-07-24T11:33:50.547Z,25.90
2018-07-24T11:36:22.729Z,25.90
2018-07-24T11:38:54.985Z,25.90
2018-07-24T11:41:27.079Z,26.20
2018-07-24T11:44:02.063Z,26.60
2018-07-24T11:46:35.103Z,26.90
2018-07-24T11:49:08.060Z,27.00
2018-07-24T11:51:47.952Z,26.90
2018-07-24T11:54:27.073Z,26.70
2018-07-24T11:56:59.703Z,26.60
2018-07-24T11:59:31.844Z,26.50
2018-07-24T12:02:03.944Z,26.50
2018-07-24T12:04:36.096Z,26.50
2018-07-24T12:07:08.264Z,26.50
2018-07-24T12:09:40.453Z,26.50
2018-07-24T12:12:12.507Z,26.50
2018-07-24T12:14:44.576Z,26.50
2018-07-24T12:17:16.703Z,26.60
2018-07-24T12:19:48.905Z,26.60
2018-07-24T12:22:21.214Z,26.60
2018-07-24T12:24:53.194Z,26.60
2018-07-24T12:27:25.492Z,26.70
2018-07-24T12:29:57.736Z,26.70
2018-07-24T12:32:29.921Z,26.70
2018-07-24T12:37:33.131Z,26.80
2018-07-24T12:40:05.467Z,26.80
2018-07-24T12:42:38.103Z,26.80
2018-07-24T12:45:10.308Z,26.90
2018-07-24T12:47:42.321Z,26.90
2018-07-24T12:50:14.691Z,26.90
2018-07-24T12:55:17.815Z,27.00
2018-07-24T12:57:50.054Z,27.00
2018-07-24T13:00:22.248Z,27.00
2018-07-24T13:02:54.362Z,27.00
2018-07-24T13:05:26.674Z,27.00
2018-07-24T13:07:58.979Z,27.10
2018-07-24T13:10:30.893Z,27.10
2018-07-24T13:13:04.743Z,27.20
2018-07-24T13:15:36.743Z,27.10
2018-07-24T13:18:08.788Z,27.20
2018-07-24T13:20:40.921Z,27.20
2018-07-24T13:23:13.236Z,27.20
2018-07-24T13:25:45.307Z,27.30
2018-07-24T13:28:17.571Z,27.30
2018-07-24T13:30:49.479Z,27.30
2018-07-24T13:33:21.482Z,27.30
2018-07-24T13:35:53.437Z,27.30
2018-07-24T13:38:25.507Z,27.30
2018-07-24T13:40:57.616Z,27.40
2018-07-24T13:43:29.770Z,27.40
2018-07-24T13:46:02.046Z,27.40
2018-07-24T13:48:34.260Z,27.40
2018-07-24T13:51:06.470Z,27.40
2018-07-24T13:53:38.976Z,27.40
2018-07-24T13:56:13.114Z,27.40
2018-07-24T13:58:45.294Z,27.40
2018-07-24T14:01:17.404Z,27.50
2018-07-24T14:03:49.554Z,27.50
2018-07-24T14:06:21.515Z,27.50
2018-07-24T14:08:53.459Z,27.50
2018-07-24T14:11:25.490Z,27.50
2018-07-24T14:13:58.130Z,27.60
2018-07-24T14:16:30.404Z,27.60
2018-07-24T14:19:02.328Z,27.60
2018-07-24T14:21:34.481Z,27.60
2018-07-24T14:24:06.640Z,27.70
2018-07-24T14:26:38.820Z,27.60
2018-07-24T14:29:10.866Z,27.70
2018-07-24T14:31:43.121Z,27.70
2018-07-24T14:34:15.338Z,27.70
2018-07-24T14:36:47.991Z,27.70
2018-07-24T14:39:20.415Z,27.70
2018-07-24T14:41:53.002Z,27.70
2018-07-24T14:44:25.832Z,27.70
2018-07-24T14:46:58.913Z,27.70
2018-07-24T14:49:31.258Z,27.70
2018-07-24T14:52:03.720Z,28.00
2018-07-24T14:54:36.406Z,28.30
2018-07-24T14:57:08.672Z,28.80
2018-07-24T14:59:41.210Z,29.30
2018-07-24T15:02:14.221Z,29.40
2018-07-24T15:04:46.486Z,29.50
2018-07-24T15:07:18.695Z,29.60
2018-07-24T15:09:50.836Z,29.70
2018-07-24T15:12:22.891Z,29.60
2018-07-24T15:14:54.867Z,29.50
2018-07-24T15:17:38.338Z,29.60
2018-07-24T15:20:10.730Z,29.70
2018-07-24T15:22:43.080Z,29.70
2018-07-24T15:25:15.328Z,29.80
2018-07-24T15:27:47.883Z,29.80
2018-07-24T15:30:20.427Z,29.80
2018-07-24T15:32:52.727Z,29.80
2018-07-24T15:35:24.699Z,29.70
2018-07-24T15:37:56.714Z,29.80
2018-07-24T15:40:28.884Z,29.70
2018-07-24T15:43:01.120Z,29.80
2018-07-24T15:45:33.313Z,29.70
2018-07-24T15:48:05.487Z,29.80
2018-07-24T15:53:09.152Z,29.80
2018-07-24T15:55:41.429Z,29.80
2018-07-24T15:58:13.679Z,29.80
2018-07-24T16:00:45.860Z,29.80
2018-07-24T16:03:18.025Z,29.80
2018-07-24T16:05:50.203Z,29.80
2018-07-24T16:08:22.119Z,29.80
2018-07-24T16:10:54.352Z,29.80
2018-07-24T16:13:26.563Z,29.90
2018-07-24T16:15:59.067Z,29.90
2018-07-24T16:18:31.164Z,29.90
2018-07-24T16:21:04.197Z,29.90
2018-07-24T16:23:36.560Z,29.80
2018-07-24T16:26:08.768Z,29.80
2018-07-24T16:28:41.068Z,29.80
2018-07-24T16:31:13.215Z,29.70
2018-07-24T16:36:16.598Z,29.80
2018-07-24T16:38:48.836Z,29.70
2018-07-24T16:41:21.002Z,29.60
2018-07-24T16:46:39.011Z,29.50
2018-07-24T16:49:11.350Z,29.50
2018-07-24T16:51:43.802Z,29.50
2018-07-24T16:54:16.014Z,29.50
2018-07-24T16:56:48.486Z,29.40
2018-07-24T16:59:20.560Z,29.40
2018-07-24T17:01:53.403Z,29.40
2018-07-24T17:04:25.769Z,29.40
2018-07-24T17:06:57.977Z,29.40
2018-07-24T17:09:30.036Z,29.40
2018-07-24T17:12:32.406Z,29.40
2018-07-24T17:15:04.801Z,29.40
2018-07-24T17:17:36.932Z,29.20
2018-07-24T17:20:09.746Z,29.20
2018-07-24T17:22:41.786Z,29.20
2018-07-24T17:25:13.825Z,29.20
2018-07-24T17:27:46.208Z,29.10
2018-07-24T17:30:18.541Z,29.10
2018-07-24T17:32:50.813Z,29.10
2018-07-24T17:35:23.332Z,29.10
2018-07-24T17:37:55.698Z,29.10
2018-07-24T17:40:28.116Z,29.00
2018-07-24T17:43:00.377Z,29.10
2018-07-24T17:45:32.560Z,29.10
2018-07-24T17:48:05.451Z,29.20
2018-07-24T17:50:37.593Z,29.20
2018-07-24T17:53:09.726Z,29.20
2018-07-24T17:55:41.986Z,29.30
2018-07-24T17:58:14.144Z,29.30
2018-07-24T18:00:46.335Z,29.30
2018-07-24T18:03:18.534Z,29.30
2018-07-24T18:05:50.631Z,29.30
2018-07-24T18:08:22.889Z,29.30
2018-07-24T18:10:55.141Z,29.30
2018-07-24T18:13:27.268Z,29.30
2018-07-24T18:15:59.860Z,29.30
2018-07-24T18:18:32.016Z,29.30
2018-07-24T18:21:04.186Z,29.30
2018-07-24T18:23:37.240Z,29.30
2018-07-24T18:26:09.515Z,29.30
2018-07-24T18:28:41.674Z,29.30
2018-07-24T18:31:14.449Z,29.30
2018-07-24T18:33:46.708Z,29.20
2018-07-24T18:36:19.146Z,29.20
2018-07-24T18:38:51.800Z,29.20
2018-07-24T18:41:23.954Z,29.20
2018-07-24T18:43:55.907Z,29.20
2018-07-24T18:46:28.056Z,29.20
2018-07-24T18:51:32.588Z,29.20
2018-07-24T18:54:05.897Z,29.20
2018-07-24T18:56:38.115Z,29.10
2018-07-24T18:59:10.282Z,29.10
2018-07-24T19:01:42.449Z,29.10
2018-07-24T19:04:14.684Z,29.10
2018-07-24T19:09:18.068Z,29.10
2018-07-24T19:11:50.146Z,29.00
2018-07-24T19:14:22.417Z,29.00
2018-07-24T19:16:54.469Z,29.00
2018-07-24T19:19:26.652Z,29.00
2018-07-24T19:27:02.036Z,28.90
2018-07-24T19:29:34.530Z,28.90
2018-07-24T19:32:07.255Z,28.90
2018-07-24T19:34:39.431Z,28.80
2018-07-24T19:37:11.469Z,28.80
2018-07-24T19:39:43.610Z,28.80
2018-07-24T19:42:16.911Z,28.80
2018-07-24T19:44:49.731Z,28.80
2018-07-24T19:47:23.550Z,28.80
2018-07-24T19:49:58.148Z,28.70
2018-07-24T19:52:31.547Z,28.70
2018-07-24T19:55:03.973Z,28.70
2018-07-24T19:57:38.174Z,28.60
2018-07-24T20:00:15.308Z,28.60
2018-07-24T20:02:48.797Z,28.60
2018-07-24T20:05:20.928Z,28.60
2018-07-24T20:07:53.198Z,28.60
2018-07-24T20:10:26.490Z,28.50
2018-07-24T20:12:58.636Z,28.10
2018-07-24T20:15:38.341Z,27.60
2018-07-24T20:18:10.528Z,27.30
2018-07-24T20:20:42.829Z,27.10
2018-07-24T20:23:15.260Z,27.00
2018-07-24T20:25:47.396Z,26.90
2018-07-24T20:28:19.765Z,26.90
2018-07-24T20:30:55.750Z,26.70
2018-07-24T20:33:27.978Z,26.90
2018-07-24T20:38:31.431Z,27.40
2018-07-24T20:41:03.654Z,27.60
2018-07-24T20:43:35.969Z,27.60
2018-07-24T20:46:08.252Z,27.70
2018-07-24T20:48:40.235Z,27.60
2018-07-24T20:51:12.453Z,27.60
2018-07-24T20:53:44.656Z,27.60
2018-07-24T20:56:16.610Z,27.60
2018-07-24T20:58:48.748Z,27.60
2018-07-24T21:01:20.897Z,27.60
2018-07-24T21:03:53.082Z,27.60
2018-07-24T21:06:25.170Z,27.60
2018-07-24T21:08:57.308Z,27.60
2018-07-24T21:14:00.746Z,27.60
2018-07-24T21:16:33.001Z,27.60
2018-07-24T21:19:05.354Z,27.60
2018-07-24T21:21:38.243Z,27.50
2018-07-24T21:24:10.344Z,27.50
2018-07-24T21:26:42.570Z,27.50
2018-07-24T21:29:14.803Z,27.50
2018-07-24T21:31:46.903Z,27.50
2018-07-24T21:34:18.967Z,27.50
2018-07-24T21:36:51.134Z,27.40
2018-07-24T21:39:23.275Z,27.40
2018-07-24T21:41:56.088Z,27.40
2018-07-24T21:44:28.376Z,27.40
2018-07-24T21:47:00.401Z,27.40
2018-07-24T21:49:32.462Z,27.30
2018-07-24T21:52:04.616Z,27.30
2018-07-24T21:54:36.694Z,27.30
2018-07-24T21:57:08.768Z,27.30
2018-07-24T21:59:41.187Z,27.30
2018-07-24T22:02:13.486Z,27.30
2018-07-24T22:04:45.600Z,27.20
2018-07-24T22:07:17.711Z,27.20
2018-07-24T22:09:49.770Z,27.20
2018-07-24T22:12:22.076Z,27.20
2018-07-24T22:14:56.220Z,27.20
2018-07-24T22:17:28.762Z,27.10
2018-07-24T22:20:00.884Z,27.10
2018-07-24T22:22:33.015Z,27.10
2018-07-24T22:25:05.155Z,27.10
2018-07-24T22:27:37.214Z,27.10
2018-07-24T22:30:10.472Z,27.10
2018-07-24T22:32:46.744Z,27.10
2018-07-24T22:35:18.854Z,27.00
2018-07-24T22:37:54.299Z,27.00
2018-07-24T22:40:27.477Z,27.00
2018-07-24T22:42:59.493Z,27.00
2018-07-24T22:45:31.694Z,26.90
2018-07-24T22:48:03.794Z,26.90
2018-07-24T22:50:36.002Z,26.90
2018-07-24T22:53:08.162Z,26.90
2018-07-24T22:55:40.193Z,26.90
2018-07-24T22:58:12.240Z,26.90
2018-07-24T23:00:44.373Z,26.90
2018-07-24T23:03:16.514Z,26.80
2018-07-24T23:05:48.946Z,26.80
2018-07-24T23:08:21.169Z,26.80
2018-07-24T23:10:53.294Z,26.70
2018-07-24T23:13:25.591Z,26.70
2018-07-24T23:21:00.136Z,26.70
2018-07-24T23:23:32.329Z,26.60
2018-07-24T23:26:04.568Z,26.60
2018-07-24T23:28:36.684Z,26.60
2018-07-24T23:31:08.831Z,26.60
2018-07-24T23:33:40.990Z,26.50
2018-07-24T23:36:19.537Z,26.50
2018-07-24T23:39:03.868Z,26.50
2018-07-24T23:41:46.515Z,26.50
2018-07-24T23:44:19.561Z,26.50
2018-07-24T23:46:51.597Z,26.50
2018-07-24T23:49:32.432Z,26.40
2018-07-24T23:52:05.554Z,26.40
2018-07-24T23:54:37.642Z,26.40
2018-07-24T23:57:09.847Z,26.40
2018-07-24T23:59:41.997Z,26.40
